Terminal Aerodrome Forecast
Issued by NWS Duluth, MN

Home | Current Version | Previous Version | Text Only | Print | Product List | Glossary On
Versions: 1 2 3 4 5 6 7 8 9 10 11 12 13 14 15
567
FTUS43 KDLH 260852 AAA
TAFINL
TAF AMD
KINL 260852Z 2609/2706 13005KT P6SM OVC009
     FM261600 VRB04KT P6SM BKN015 BKN025
     FM261900 33004KT P6SM SCT025 BKN120=

USA.gov is the U.S. government's official web portal to all federal, state and local government web resources and services.